sensor_id;sensor_type;location;lat;lon;timestamp;pressure;altitude;pressure_sealevel;temperature;humidity
62976;BME280;49071;0.000;0.000;2022-11-10T06:18:21;101229.38;;;17.09;51.98
62976;BME280;49071;0.000;0.000;2022-11-10T06:21:21;101241.88;;;17.17;51.92
62976;BME280;49071;0.000;0.000;2022-11-10T06:24:22;101259.19;;;17.12;52.03
62976;BME280;49071;0.000;0.000;2022-11-10T06:27:22;101263.28;;;17.08;51.90
62976;BME280;49071;0.000;0.000;2022-11-10T06:30:22;101261.41;;;17.04;52.06
62976;BME280;49071;0.000;0.000;2022-11-10T06:33:22;101273.00;;;17.03;51.94
62976;BME280;49071;0.000;0.000;2022-11-10T06:36:23;101283.38;;;17.02;52.12
62976;BME280;49071;0.000;0.000;2022-11-10T06:39:23;101290.53;;;17.03;52.04
62976;BME280;49071;0.000;0.000;2022-11-10T06:42:23;101302.47;;;17.04;52.07
62976;BME280;49071;0.000;0.000;2022-11-10T06:45:23;101300.91;;;17.03;52.00
62976;BME280;49071;0.000;0.000;2022-11-10T06:48:24;101311.63;;;17.04;52.04
62976;BME280;49071;0.000;0.000;2022-11-10T06:51:24;101315.31;;;17.01;51.91
62976;BME280;49071;0.000;0.000;2022-11-10T06:54:24;101318.09;;;17.01;51.88
62976;BME280;49071;0.000;0.000;2022-11-10T06:57:24;101322.25;;;17.10;51.98
62976;BME280;49071;0.000;0.000;2022-11-10T07:00:25;101327.44;;;17.24;51.63
62976;BME280;49071;0.000;0.000;2022-11-10T07:03:26;101334.34;;;17.48;51.18
62976;BME280;49071;0.000;0.000;2022-11-10T07:06:26;101339.88;;;17.78;50.65
62976;BME280;49071;0.000;0.000;2022-11-10T07:09:27;101345.75;;;17.96;50.43
62976;BME280;49071;0.000;0.000;2022-11-10T07:12:27;101356.38;;;18.40;49.44
62976;BME280;49071;0.000;0.000;2022-11-10T07:15:27;101366.38;;;18.63;49.30
62976;BME280;49071;0.000;0.000;2022-11-10T07:18:27;101362.47;;;18.86;48.73
62976;BME280;49071;0.000;0.000;2022-11-10T07:21:28;101371.41;;;18.93;48.50
62976;BME280;49071;0.000;0.000;2022-11-10T07:24:28;101379.56;;;19.01;48.50
62976;BME280;49071;0.000;0.000;2022-11-10T07:27:29;101384.91;;;19.08;48.36
62976;BME280;49071;0.000;0.000;2022-11-10T07:30:30;101390.41;;;19.11;48.24
62976;BME280;49071;0.000;0.000;2022-11-10T07:33:31;101397.41;;;19.16;48.15
62976;BME280;49071;0.000;0.000;2022-11-10T07:36:31;101402.25;;;19.15;48.20
62976;BME280;49071;0.000;0.000;2022-11-10T07:39:31;101406.19;;;19.05;48.52
62976;BME280;49071;0.000;0.000;2022-11-10T07:42:31;101416.88;;;18.97;48.68
62976;BME280;49071;0.000;0.000;2022-11-10T07:45:37;101421.94;;;18.90;48.82
62976;BME280;49071;0.000;0.000;2022-11-10T07:48:37;101419.81;;;18.81;48.94
62976;BME280;49071;0.000;0.000;2022-11-10T07:51:38;101426.03;;;18.72;49.12
62976;BME280;49071;0.000;0.000;2022-11-10T07:54:38;101428.53;;;18.70;49.16
62976;BME280;49071;0.000;0.000;2022-11-10T07:57:38;101433.78;;;18.68;49.12
62976;BME280;49071;0.000;0.000;2022-11-10T08:00:38;101436.03;;;18.61;49.15
62976;BME280;49071;0.000;0.000;2022-11-10T08:03:39;101441.38;;;18.55;49.41
62976;BME280;49071;0.000;0.000;2022-11-10T08:06:39;101447.31;;;18.57;49.27
62976;BME280;49071;0.000;0.000;2022-11-10T08:09:39;101455.16;;;18.62;49.17
62976;BME280;49071;0.000;0.000;2022-11-10T08:12:39;101460.97;;;18.55;49.27
62976;BME280;49071;0.000;0.000;2022-11-10T08:15:40;101465.09;;;18.50;49.44
62976;BME280;49071;0.000;0.000;2022-11-10T08:18:40;101471.59;;;18.47;49.49
62976;BME280;49071;0.000;0.000;2022-11-10T08:21:40;101466.13;;;18.44;49.48
62976;BME280;49071;0.000;0.000;2022-11-10T08:24:41;101472.16;;;18.42;49.53
62976;BME280;49071;0.000;0.000;2022-11-10T08:27:41;101469.59;;;18.48;49.51
62976;BME280;49071;0.000;0.000;2022-11-10T08:30:42;101476.44;;;18.47;49.45
62976;BME280;49071;0.000;0.000;2022-11-10T08:33:43;101488.31;;;18.51;49.47
62976;BME280;49071;0.000;0.000;2022-11-10T08:36:43;101490.97;;;18.54;49.34
62976;BME280;49071;0.000;0.000;2022-11-10T08:39:44;101490.28;;;18.50;49.29
62976;BME280;49071;0.000;0.000;2022-11-10T08:42:44;101493.91;;;18.51;49.41
62976;BME280;49071;0.000;0.000;2022-11-10T08:45:45;101498.38;;;18.48;49.51
62976;BME280;49071;0.000;0.000;2022-11-10T08:48:45;101508.53;;;18.55;49.35
62976;BME280;49071;0.000;0.000;2022-11-10T08:51:45;101506.44;;;18.59;49.39
62976;BME280;49071;0.000;0.000;2022-11-10T08:54:46;101510.78;;;18.60;49.21
62976;BME280;49071;0.000;0.000;2022-11-10T08:57:46;101521.44;;;18.65;49.22
62976;BME280;49071;0.000;0.000;2022-11-10T09:00:47;101523.78;;;18.67;49.17
62976;BME280;49071;0.000;0.000;2022-11-10T09:03:47;101486.03;;;18.46;49.31
62976;BME280;49071;0.000;0.000;2022-11-10T09:06:47;101536.44;;;18.71;49.20
62976;BME280;49071;0.000;0.000;2022-11-10T09:09:48;101519.97;;;18.73;49.16
62976;BME280;49071;0.000;0.000;2022-11-10T09:12:48;101523.13;;;18.75;49.23
62976;BME280;49071;0.000;0.000;2022-11-10T09:15:48;101535.91;;;18.76;49.19
62976;BME280;49071;0.000;0.000;2022-11-10T09:18:49;101535.47;;;18.78;49.19
62976;BME280;49071;0.000;0.000;2022-11-10T09:21:49;101541.13;;;18.74;49.21
62976;BME280;49071;0.000;0.000;2022-11-10T09:24:49;101536.44;;;18.71;49.22
62976;BME280;49071;0.000;0.000;2022-11-10T09:27:49;101548.41;;;18.72;49.27
62976;BME280;49071;0.000;0.000;2022-11-10T09:30:50;101558.38;;;18.73;49.27
62976;BME280;49071;0.000;0.000;2022-11-10T09:33:50;101568.34;;;18.74;49.16
62976;BME280;49071;0.000;0.000;2022-11-10T09:36:50;101563.44;;;18.78;48.96
62976;BME280;49071;0.000;0.000;2022-11-10T09:39:51;101569.03;;;18.91;48.64
62976;BME280;49071;0.000;0.000;2022-11-10T09:42:54;101567.47;;;19.03;48.57
62976;BME280;49071;0.000;0.000;2022-11-10T09:45:57;101574.66;;;19.16;48.37
62976;BME280;49071;0.000;0.000;2022-11-10T09:49:00;101569.81;;;19.30;48.10
62976;BME280;49071;0.000;0.000;2022-11-10T09:52:01;101582.34;;;19.51;47.93
62976;BME280;49071;0.000;0.000;2022-11-10T09:55:17;101580.06;;;19.58;47.49
62976;BME280;49071;0.000;0.000;2022-11-10T09:58:18;101586.34;;;19.63;47.64
62976;BME280;49071;0.000;0.000;2022-11-10T10:01:37;101585.09;;;19.64;47.33
62976;BME280;49071;0.000;0.000;2022-11-10T10:08:04;101585.69;;;19.58;47.57
62976;BME280;49071;0.000;0.000;2022-11-10T10:14:12;101586.25;;;19.53;47.86
62976;BME280;49071;0.000;0.000;2022-11-10T10:23:32;101606.56;;;19.32;47.92
62976;BME280;49071;0.000;0.000;2022-11-10T10:26:38;101594.59;;;19.31;47.89
62976;BME280;49071;0.000;0.000;2022-11-10T10:29:40;101594.59;;;19.31;47.89
62976;BME280;49071;0.000;0.000;2022-11-10T10:32:41;101599.41;;;19.31;48.02
62976;BME280;49071;0.000;0.000;2022-11-10T10:35:42;101590.53;;;19.45;47.69
62976;BME280;49071;0.000;0.000;2022-11-10T10:38:43;101585.69;;;19.58;47.61
62976;BME280;49071;0.000;0.000;2022-11-10T10:41:44;101588.47;;;19.71;47.22
62976;BME280;49071;0.000;0.000;2022-11-10T10:48:04;101589.81;;;19.79;47.15
62976;BME280;49071;0.000;0.000;2022-11-10T10:51:28;101596.53;;;19.82;47.09
62976;BME280;49071;0.000;0.000;2022-11-10T10:54:33;101598.41;;;19.85;47.09
62976;BME280;49071;0.000;0.000;2022-11-10T10:57:33;101594.47;;;19.95;46.92
62976;BME280;49071;0.000;0.000;2022-11-10T11:00:40;101591.31;;;19.93;47.02
62976;BME280;49071;0.000;0.000;2022-11-10T11:03:42;101594.69;;;19.88;47.17
62976;BME280;49071;0.000;0.000;2022-11-10T11:06:43;101599.19;;;19.86;47.14
62976;BME280;49071;0.000;0.000;2022-11-10T11:09:54;101598.41;;;19.85;47.10
62976;BME280;49071;0.000;0.000;2022-11-10T11:12:54;101607.75;;;19.82;47.34
62976;BME280;49071;0.000;0.000;2022-11-10T11:16:11;101608.66;;;19.79;47.22
62976;BME280;49071;0.000;0.000;2022-11-10T11:19:11;101614.81;;;19.74;47.44
62976;BME280;49071;0.000;0.000;2022-11-10T11:25:17;101613.03;;;19.67;47.36
62976;BME280;49071;0.000;0.000;2022-11-10T11:31:51;101626.94;;;19.58;47.69
62976;BME280;49071;0.000;0.000;2022-11-10T11:35:06;101630.66;;;19.55;47.70
62976;BME280;49071;0.000;0.000;2022-11-10T11:38:13;101625.94;;;19.52;47.77
62976;BME280;49071;0.000;0.000;2022-11-10T11:41:28;101628.84;;;19.48;47.79
62976;BME280;49071;0.000;0.000;2022-11-10T11:44:44;101635.38;;;19.45;47.94
62976;BME280;49071;0.000;0.000;2022-11-10T11:50:51;101636.81;;;19.37;48.07
62976;BME280;49071;0.000;0.000;2022-11-10T11:57:05;101632.22;;;19.30;48.17
62976;BME280;49071;0.000;0.000;2022-11-10T12:00:12;101633.91;;;19.28;48.26
62976;BME280;49071;0.000;0.000;2022-11-10T12:06:34;101640.97;;;19.19;48.40
62976;BME280;49071;0.000;0.000;2022-11-10T12:09:47;101636.28;;;19.16;48.46
62976;BME280;49071;0.000;0.000;2022-11-10T12:12:54;101646.00;;;19.12;48.57
62976;BME280;49071;0.000;0.000;2022-11-10T12:16:00;101645.31;;;19.08;48.74
62976;BME280;49071;0.000;0.000;2022-11-10T12:25:18;101649.03;;;18.92;49.09
62976;BME280;49071;0.000;0.000;2022-11-10T12:28:24;101650.66;;;18.89;49.12
62976;BME280;49071;0.000;0.000;2022-11-10T12:31:26;101649.22;;;18.85;49.27
62976;BME280;49071;0.000;0.000;2022-11-10T12:34:41;101660.16;;;18.79;49.16
62976;BME280;49071;0.000;0.000;2022-11-10T12:37:47;101661.06;;;18.76;49.34
62976;BME280;49071;0.000;0.000;2022-11-10T12:40:50;101664.09;;;18.82;49.36
62976;BME280;49071;0.000;0.000;2022-11-10T12:44:02;101657.50;;;18.88;49.07
62976;BME280;49071;0.000;0.000;2022-11-10T12:47:05;101660.31;;;19.01;48.82
62976;BME280;49071;0.000;0.000;2022-11-10T12:53:23;101666.63;;;19.31;48.33
62976;BME280;49071;0.000;0.000;2022-11-10T12:56:27;101670.69;;;19.43;48.04
62976;BME280;49071;0.000;0.000;2022-11-10T12:59:29;101677.94;;;19.53;47.93
62976;BME280;49071;0.000;0.000;2022-11-10T13:02:31;101679.53;;;19.79;47.33
62976;BME280;49071;0.000;0.000;2022-11-10T13:08:33;101696.75;;;20.03;47.06
62976;BME280;49071;0.000;0.000;2022-11-10T13:11:35;101698.09;;;19.99;47.31
62976;BME280;49071;0.000;0.000;2022-11-10T13:14:35;101700.91;;;19.99;47.33
62976;BME280;49071;0.000;0.000;2022-11-10T13:32:44;101720.69;;;19.70;47.80
62976;BME280;49071;0.000;0.000;2022-11-10T13:35:49;101718.41;;;19.65;47.90
62976;BME280;49071;0.000;0.000;2022-11-10T13:38:50;101727.38;;;19.59;47.99
62976;BME280;49071;0.000;0.000;2022-11-10T13:42:00;101727.16;;;19.54;48.16
62976;BME280;49071;0.000;0.000;2022-11-10T13:48:27;101724.69;;;19.43;48.28
62976;BME280;49071;0.000;0.000;2022-11-10T13:51:35;101722.44;;;19.38;48.40
62976;BME280;49071;0.000;0.000;2022-11-10T14:04:35;101732.63;;;19.19;48.78
62976;BME280;49071;0.000;0.000;2022-11-10T14:07:35;101742.91;;;19.09;48.60
62976;BME280;49071;0.000;0.000;2022-11-10T14:10:41;101751.19;;;19.13;48.75
62976;BME280;49071;0.000;0.000;2022-11-10T14:13:45;101751.31;;;19.09;48.93
62976;BME280;49071;0.000;0.000;2022-11-10T14:16:48;101755.44;;;19.05;49.07
62976;BME280;49071;0.000;0.000;2022-11-10T14:19:49;101769.53;;;19.01;49.08
62976;BME280;49071;0.000;0.000;2022-11-10T14:22:49;101776.78;;;18.98;49.20
62976;BME280;49071;0.000;0.000;2022-11-10T14:25:52;101781.28;;;18.96;49.14
62976;BME280;49071;0.000;0.000;2022-11-10T14:28:54;101776.56;;;18.93;49.21
62976;BME280;49071;0.000;0.000;2022-11-10T14:31:55;101772.63;;;18.90;49.36
62976;BME280;49071;0.000;0.000;2022-11-10T14:34:56;101766.69;;;18.88;49.34
62976;BME280;49071;0.000;0.000;2022-11-10T14:37:58;101780.00;;;18.84;49.52
62976;BME280;49071;0.000;0.000;2022-11-10T14:40:59;101791.09;;;18.88;49.34
62976;BME280;49071;0.000;0.000;2022-11-10T14:44:04;101804.56;;;18.93;49.56
62976;BME280;49071;0.000;0.000;2022-11-10T14:50:25;101798.38;;;18.85;49.67
62976;BME280;49071;0.000;0.000;2022-11-10T14:53:27;101812.03;;;18.83;49.76
62976;BME280;49071;0.000;0.000;2022-11-10T14:56:36;101821.63;;;18.82;49.81
62976;BME280;49071;0.000;0.000;2022-11-10T14:59:36;101824.44;;;18.82;49.87
62976;BME280;49071;0.000;0.000;2022-11-10T15:02:36;101818.50;;;18.80;50.03
62976;BME280;49071;0.000;0.000;2022-11-10T15:05:37;101819.28;;;18.81;50.00
62976;BME280;49071;0.000;0.000;2022-11-10T15:08:38;101824.88;;;18.81;50.03
62976;BME280;49071;0.000;0.000;2022-11-10T15:11:52;101826.09;;;18.80;50.06
62976;BME280;49071;0.000;0.000;2022-11-10T15:14:56;101831.00;;;18.75;50.23
62976;BME280;49071;0.000;0.000;2022-11-10T15:17:57;101836.59;;;18.75;50.34
62976;BME280;49071;0.000;0.000;2022-11-10T15:21:02;101839.38;;;18.75;50.34
62976;BME280;49071;0.000;0.000;2022-11-10T15:24:03;101840.59;;;18.74;50.22
62976;BME280;49071;0.000;0.000;2022-11-10T15:27:04;101859.06;;;18.72;50.50
62976;BME280;49071;0.000;0.000;2022-11-10T15:30:18;101864.66;;;18.72;50.50
62976;BME280;49071;0.000;0.000;2022-11-10T15:33:30;101866.31;;;18.69;50.46
62976;BME280;49071;0.000;0.000;2022-11-10T15:36:34;101865.97;;;18.67;50.60
62976;BME280;49071;0.000;0.000;2022-11-10T15:39:38;101872.38;;;18.68;50.60
62976;BME280;49071;0.000;0.000;2022-11-10T15:42:38;101871.56;;;18.67;50.62
62976;BME280;49071;0.000;0.000;2022-11-10T15:45:39;101874.38;;;18.67;50.52
62976;BME280;49071;0.000;0.000;2022-11-10T15:48:43;101878.75;;;18.68;50.57
62976;BME280;49071;0.000;0.000;2022-11-10T15:51:44;101886.03;;;18.66;50.60
62976;BME280;49071;0.000;0.000;2022-11-10T15:54:44;101891.38;;;18.76;50.60
62976;BME280;49071;0.000;0.000;2022-11-10T15:57:45;101891.97;;;18.84;50.27
62976;BME280;49071;0.000;0.000;2022-11-10T16:00:45;101889.09;;;18.88;50.10
62976;BME280;49071;0.000;0.000;2022-11-10T16:03:45;101893.53;;;19.02;50.01
62976;BME280;49071;0.000;0.000;2022-11-10T16:06:46;101905.03;;;19.20;49.67
62976;BME280;49071;0.000;0.000;2022-11-10T16:09:46;101907.06;;;19.49;49.04
62976;BME280;49071;0.000;0.000;2022-11-10T16:12:46;101900.09;;;19.70;48.80
62976;BME280;49071;0.000;0.000;2022-11-10T16:15:46;101907.53;;;19.89;48.40
62976;BME280;49071;0.000;0.000;2022-11-10T16:18:47;101908.66;;;20.04;48.38
62976;BME280;49071;0.000;0.000;2022-11-10T16:21:47;101896.09;;;20.22;47.77
62976;BME280;49071;0.000;0.000;2022-11-10T16:24:47;101905.06;;;20.17;48.20
62976;BME280;49071;0.000;0.000;2022-11-10T16:27:47;101895.44;;;20.18;48.36
62976;BME280;49071;0.000;0.000;2022-11-10T16:30:48;101900.94;;;20.09;48.18
62976;BME280;49071;0.000;0.000;2022-11-10T16:33:49;101897.78;;;20.07;48.49
62976;BME280;49071;0.000;0.000;2022-11-10T16:36:49;101900.13;;;19.95;48.57
62976;BME280;49071;0.000;0.000;2022-11-10T16:39:50;101890.22;;;19.91;48.68
62976;BME280;49071;0.000;0.000;2022-11-10T16:42:50;101900.53;;;19.81;48.94
62976;BME280;49071;0.000;0.000;2022-11-10T16:45:51;101892.47;;;19.83;49.07
62976;BME280;49071;0.000;0.000;2022-11-10T16:48:53;101894.63;;;19.79;49.17
62976;BME280;49071;0.000;0.000;2022-11-10T16:51:54;101904.69;;;19.76;49.23
62976;BME280;49071;0.000;0.000;2022-11-10T16:54:54;101906.34;;;19.74;49.24
62976;BME280;49071;0.000;0.000;2022-11-10T16:57:54;101912.13;;;19.67;49.40
62976;BME280;49071;0.000;0.000;2022-11-10T17:00:58;101917.06;;;19.63;49.66
62976;BME280;49071;0.000;0.000;2022-11-10T17:04:00;101935.00;;;19.52;49.83
62976;BME280;49071;0.000;0.000;2022-11-10T17:07:07;101933.41;;;19.51;49.74
62976;BME280;49071;0.000;0.000;2022-11-10T17:10:13;101941.81;;;19.51;49.83
62976;BME280;49071;0.000;0.000;2022-11-10T17:13:14;101961.63;;;19.44;49.98
62976;BME280;49071;0.000;0.000;2022-11-10T17:16:23;101957.94;;;19.47;50.13
62976;BME280;49071;0.000;0.000;2022-11-10T17:19:25;101956.94;;;19.54;49.88
62976;BME280;49071;0.000;0.000;2022-11-10T17:22:25;101964.56;;;19.70;49.86
62976;BME280;49071;0.000;0.000;2022-11-10T17:25:30;101956.75;;;19.90;49.59
62976;BME280;49071;0.000;0.000;2022-11-10T17:28:31;101950.84;;;20.14;49.21
62976;BME280;49071;0.000;0.000;2022-11-10T17:31:32;101945.25;;;20.14;49.04
62976;BME280;49071;0.000;0.000;2022-11-10T17:34:32;101965.22;;;20.16;48.73
62976;BME280;49071;0.000;0.000;2022-11-10T17:37:33;101920.06;;;19.85;48.88
62976;BME280;49071;0.000;0.000;2022-11-10T17:40:33;101962.63;;;20.09;48.84
62976;BME280;49071;0.000;0.000;2022-11-10T17:43:34;101966.22;;;20.09;48.76
62976;BME280;49071;0.000;0.000;2022-11-10T17:46:34;101959.59;;;20.03;49.13
62976;BME280;49071;0.000;0.000;2022-11-10T17:49:34;101966.19;;;19.96;49.06
62976;BME280;49071;0.000;0.000;2022-11-10T17:52:34;101977.63;;;19.89;49.10
62976;BME280;49071;0.000;0.000;2022-11-10T17:55:35;101987.59;;;19.90;49.33
62976;BME280;49071;0.000;0.000;2022-11-10T17:58:35;101984.91;;;19.87;49.39
62976;BME280;49071;0.000;0.000;2022-11-10T18:01:36;101989.03;;;19.82;49.27
62976;BME280;49071;0.000;0.000;2022-11-10T18:04:36;101984.34;;;19.79;49.30
62976;BME280;49071;0.000;0.000;2022-11-10T18:07:36;101986.09;;;19.73;49.49
62976;BME280;49071;0.000;0.000;2022-11-10T18:10:41;101997.41;;;19.69;49.68
62976;BME280;49071;0.000;0.000;2022-11-10T18:13:41;102006.50;;;19.73;49.58
62976;BME280;49071;0.000;0.000;2022-11-10T18:16:42;101993.25;;;19.74;49.64
62976;BME280;49071;0.000;0.000;2022-11-10T18:19:42;102006.59;;;19.70;49.83
62976;BME280;49071;0.000;0.000;2022-11-10T18:22:43;102003.50;;;19.64;49.88
62976;BME280;49071;0.000;0.000;2022-11-10T18:25:43;102005.53;;;19.64;50.10
62976;BME280;49071;0.000;0.000;2022-11-10T18:28:43;101993.63;;;19.59;50.17
62976;BME280;49071;0.000;0.000;2022-11-10T18:31:47;102002.50;;;19.58;50.10
62976;BME280;49071;0.000;0.000;2022-11-10T18:34:47;102009.31;;;19.57;50.32
62976;BME280;49071;0.000;0.000;2022-11-10T18:37:48;102014.13;;;19.56;50.27
62976;BME280;49071;0.000;0.000;2022-11-10T18:40:48;102014.47;;;19.58;50.36
62976;BME280;49071;0.000;0.000;2022-11-10T18:43:48;102016.56;;;19.71;50.33
62976;BME280;49071;0.000;0.000;2022-11-10T18:46:48;102021.78;;;19.85;50.28
62976;BME280;49071;0.000;0.000;2022-11-10T18:49:49;102013.88;;;19.96;49.78
62976;BME280;49071;0.000;0.000;2022-11-10T18:52:49;102008.72;;;20.08;49.56
62976;BME280;49071;0.000;0.000;2022-11-10T18:55:55;102002.94;;;20.28;49.18
62976;BME280;49071;0.000;0.000;2022-11-10T18:58:56;102011.72;;;20.42;48.96
62976;BME280;49071;0.000;0.000;2022-11-10T19:01:56;102019.69;;;20.44;48.76
62976;BME280;49071;0.000;0.000;2022-11-10T19:04:56;102019.78;;;20.40;48.77
62976;BME280;49071;0.000;0.000;2022-11-10T19:07:56;102026.75;;;20.36;49.43
62976;BME280;49071;0.000;0.000;2022-11-10T19:10:56;102015.19;;;20.34;49.20
62976;BME280;49071;0.000;0.000;2022-11-10T19:13:57;102011.59;;;20.33;49.35
62976;BME280;49071;0.000;0.000;2022-11-10T19:16:59;102014.94;;;20.28;49.59
62976;BME280;49071;0.000;0.000;2022-11-10T19:19:59;102014.06;;;20.31;49.52
62976;BME280;49071;0.000;0.000;2022-11-10T19:23:01;102011.78;;;20.13;49.86
62976;BME280;49071;0.000;0.000;2022-11-10T19:26:02;102019.94;;;20.08;49.90
62976;BME280;49071;0.000;0.000;2022-11-10T19:29:03;102023.31;;;20.02;50.21
62976;BME280;49071;0.000;0.000;2022-11-10T19:32:04;102027.56;;;19.94;50.13
62976;BME280;49071;0.000;0.000;2022-11-10T19:35:04;102036.84;;;19.91;50.20
62976;BME280;49071;0.000;0.000;2022-11-10T19:38:05;102025.03;;;19.83;50.36
62976;BME280;49071;0.000;0.000;2022-11-10T19:41:09;102040.53;;;19.88;50.35
62976;BME280;49071;0.000;0.000;2022-11-10T19:44:09;102049.84;;;19.85;50.29
62976;BME280;49071;0.000;0.000;2022-11-10T19:47:10;102061.06;;;19.85;50.21
62976;BME280;49071;0.000;0.000;2022-11-10T19:50:10;102069.88;;;19.83;50.47
62976;BME280;49071;0.000;0.000;2022-11-10T19:53:10;102064.47;;;19.76;50.38
62976;BME280;49071;0.000;0.000;2022-11-10T19:56:15;102064.22;;;19.71;50.48
62976;BME280;49071;0.000;0.000;2022-11-10T19:59:16;102077.81;;;19.72;50.41
62976;BME280;49071;0.000;0.000;2022-11-10T20:02:18;102079.84;;;19.72;50.41
62976;BME280;49071;0.000;0.000;2022-11-10T20:05:18;102068.72;;;19.68;50.54
62976;BME280;49071;0.000;0.000;2022-11-10T20:08:18;102061.16;;;19.65;50.65
62976;BME280;49071;0.000;0.000;2022-11-10T20:11:20;102053.91;;;19.68;50.62
62976;BME280;49071;0.000;0.000;2022-11-10T20:14:21;102058.72;;;19.67;50.62
62976;BME280;49071;0.000;0.000;2022-11-10T20:17:21;102057.66;;;19.61;50.63
62976;BME280;49071;0.000;0.000;2022-11-10T20:20:22;102058.09;;;19.59;51.05
62976;BME280;49071;0.000;0.000;2022-11-10T20:23:22;102058.53;;;19.58;50.94
62976;BME280;49071;0.000;0.000;2022-11-10T20:26:22;102050.91;;;19.58;51.02
62976;BME280;49071;0.000;0.000;2022-11-10T20:29:23;102052.69;;;19.52;51.08
62976;BME280;49071;0.000;0.000;2022-11-10T20:32:23;102042.63;;;19.55;51.02
62976;BME280;49071;0.000;0.000;2022-11-10T20:35:24;102042.63;;;19.55;51.11
62976;BME280;49071;0.000;0.000;2022-11-10T20:38:24;102040.66;;;19.52;51.29
62976;BME280;49071;0.000;0.000;2022-11-10T20:41:25;102046.38;;;19.48;51.45
62976;BME280;49071;0.000;0.000;2022-11-10T20:44:26;102059.84;;;19.53;51.54
62976;BME280;49071;0.000;0.000;2022-11-10T20:47:26;102059.16;;;19.49;51.42
62976;BME280;49071;0.000;0.000;2022-11-10T20:50:27;102061.00;;;19.39;51.46
62976;BME280;49071;0.000;0.000;2022-11-10T20:53:27;102065.81;;;19.39;51.66
